Time;durP1;ratioP1;P1;durP2;ratioP2;P2;SDS_P1;SDS_P2;PMS_P1;PMS_P2;Temp;Humidity;BMP_temperature;BMP_pressure;BME280_temperature;BME280_humidity;BME280_pressure;Samples;Min_cycle;Max_cycle;Signal;HPM_P1;HPM_P2
2023/01/15 00:01:48;;;;;;;3.17;0.40;;;7.90;99.90;;;;;;5117101;28;20031;-68
2023/01/15 00:04:14;;;;;;;1.65;0.60;;;8.00;99.90;;;;;;5116745;28;20028;-67
2023/01/15 00:06:42;;;;;;;0.55;0.30;;;8.00;99.90;;;;;;5116883;28;20546;-67
2023/01/15 00:09:12;;;;;;;1.23;0.40;;;8.00;99.90;;;;;;5115754;28;20030;-67
2023/01/15 00:11:37;;;;;;;0.73;0.45;;;8.00;99.90;;;;;;5115801;28;20028;-67
2023/01/15 00:14:03;;;;;;;0.70;0.40;;;8.00;99.90;;;;;;5115721;28;20031;-67
2023/01/15 00:16:29;;;;;;;1.23;0.50;;;8.10;99.90;;;;;;5114545;28;20023;-66
2023/01/15 00:18:57;;;;;;;1.10;0.40;;;8.10;99.90;;;;;;5114277;28;20492;-65
2023/01/15 00:21:24;;;;;;;1.75;0.38;;;8.10;99.90;;;;;;5115398;28;20031;-67
2023/01/15 00:29:20;;;;;;;;;;;8.10;99.90;;;;;;5115220;28;20125;-67
2023/01/15 00:32:06;;;;;;;0.77;0.40;;;8.10;99.90;;;;;;5115024;28;20181;-65
2023/01/15 00:34:34;;;;;;;2.75;0.30;;;8.00;99.90;;;;;;5113870;28;20031;-67
2023/01/15 00:37:00;;;;;;;2.33;0.50;;;8.00;99.90;;;;;;5113434;28;20099;-65
2023/01/15 00:39:26;;;;;;;0.55;0.38;;;8.00;99.90;;;;;;5114332;28;20027;-64
2023/01/15 00:41:53;;;;;;;0.73;0.32;;;8.00;99.90;;;;;;5114894;28;20028;-64
2023/01/15 00:44:19;;;;;;;1.20;0.50;;;8.00;99.90;;;;;;5112805;28;20080;-67
2023/01/15 00:46:45;;;;;;;1.35;0.40;;;8.10;99.90;;;;;;5115106;28;20028;-66
2023/01/15 00:49:11;;;;;;;1.00;0.40;;;8.10;99.90;;;;;;5115766;28;20111;-66
2023/01/15 00:51:37;;;;;;;0.45;0.30;;;8.10;99.90;;;;;;5114925;28;20054;-67
2023/01/15 00:54:03;;;;;;;0.95;0.40;;;8.20;99.90;;;;;;5113990;28;20032;-67
2023/01/15 00:56:29;;;;;;;2.05;0.30;;;8.20;99.90;;;;;;5114668;28;20022;-66
2023/01/15 00:58:55;;;;;;;0.88;0.40;;;8.20;99.90;;;;;;5114562;28;20104;-65
2023/01/15 01:01:21;;;;;;;1.05;0.40;;;8.20;99.90;;;;;;5119066;28;20023;-66
2023/01/15 01:03:47;;;;;;;0.50;0.38;;;8.10;99.90;;;;;;5120439;28;20027;-66
2023/01/15 01:06:15;;;;;;;0.40;0.40;;;8.10;99.90;;;;;;5120510;27;20145;-65
2023/01/15 01:08:41;;;;;;;0.98;0.35;;;8.10;99.90;;;;;;5120296;28;20011;-62
2023/01/15 01:11:11;;;;;;;1.08;0.40;;;8.10;99.90;;;;;;5121193;28;20032;-66
2023/01/15 01:13:37;;;;;;;0.73;0.32;;;8.10;99.90;;;;;;5121522;28;20028;-66
2023/01/15 01:16:15;;;;;;;0.50;0.30;;;8.10;99.90;;;;;;5120941;28;20036;-66
2023/01/15 01:18:41;;;;;;;1.00;0.30;;;9.50;99.90;;;;;;5122024;28;20024;-66
2023/01/15 01:21:06;;;;;;;1.13;0.38;;;8.20;99.90;;;;;;5120073;28;20497;-67
2023/01/15 01:23:32;;;;;;;0.20;0.13;;;8.30;99.90;;;;;;5120025;28;20110;-66
2023/01/15 01:25:58;;;;;;;1.13;0.40;;;8.30;99.90;;;;;;5118526;28;20174;-67
2023/01/15 01:28:23;;;;;;;0.95;0.20;;;8.30;99.90;;;;;;5119630;28;20489;-66
2023/01/15 01:30:49;;;;;;;1.10;0.40;;;8.30;99.90;;;;;;5121404;28;20027;-67
2023/01/15 01:33:14;;;;;;;0.73;0.20;;;8.20;99.90;;;;;;5120620;28;20028;-67
2023/01/15 01:35:49;;;;;;;0.40;0.25;;;8.20;99.90;;;;;;5117875;28;20059;-65
2023/01/15 01:38:15;;;;;;;0.95;0.40;;;8.30;99.90;;;;;;5114933;28;20032;-66
2023/01/15 01:40:41;;;;;;;3.13;0.52;;;8.40;99.90;;;;;;5114431;28;20049;-65
2023/01/15 01:43:27;;;;;;;1.00;0.30;;;8.40;99.90;;;;;;5114708;28;20472;-66
2023/01/15 01:45:53;;;;;;;1.00;0.28;;;8.40;99.90;;;;;;5116598;28;20047;-66
2023/01/15 01:48:30;;;;;;;1.55;0.40;;;8.40;99.90;;;;;;5116842;28;20024;-66
2023/01/15 01:50:59;;;;;;;0.20;0.20;;;8.50;99.90;;;;;;5100771;28;20035;-66
2023/01/15 01:53:28;;;;;;;0.93;0.40;;;8.40;99.90;;;;;;5110250;28;20055;-66
2023/01/15 01:55:55;;;;;;;0.40;0.28;;;8.40;99.90;;;;;;5122429;28;20068;-66
2023/01/15 01:58:23;;;;;;;0.30;0.25;;;8.60;99.90;;;;;;5122402;27;20176;-65
2023/01/15 02:00:50;;;;;;;1.35;0.38;;;8.50;99.90;;;;;;5121564;28;20032;-65
2023/01/15 02:03:18;;;;;;;0.57;0.20;;;8.50;99.90;;;;;;5120655;28;20032;-66
2023/01/15 02:05:49;;;;;;;2.50;0.43;;;8.60;99.90;;;;;;5121613;28;20024;-66
2023/01/15 02:08:15;;;;;;;0.32;0.30;;;8.40;99.90;;;;;;5121809;28;20026;-66
2023/01/15 02:10:40;;;;;;;1.50;0.30;;;8.50;99.90;;;;;;5131177;22;20130;-65
2023/01/15 02:13:31;;;;;;;1.55;0.30;;;8.50;99.90;;;;;;5111946;28;20024;-63
2023/01/15 02:16:06;;;;;;;0.70;0.47;;;8.50;99.90;;;;;;5097335;28;20099;-64
2023/01/15 02:18:52;;;;;;;5.95;0.47;;;9.60;99.90;;;;;;5109506;28;20552;-63
2023/01/15 02:21:26;;;;;;;5.57;0.30;;;8.40;99.90;;;;;;5076220;28;20074;-62
2023/01/15 02:24:09;;;;;;;1.38;0.30;;;8.40;99.90;;;;;;5075762;28;20036;-62
2023/01/15 02:27:10;;;;;;;1.40;0.22;;;8.40;99.90;;;;;;5075614;28;20030;-64
2023/01/15 02:30:01;;;;;;;2.15;0.20;;;8.40;99.90;;;;;;5078664;28;20382;-63
2023/01/15 02:32:36;;;;;;;1.42;0.20;;;8.50;99.90;;;;;;5077165;28;20433;-65
2023/01/15 02:35:28;;;;;;;0.60;0.30;;;8.50;99.90;;;;;;5077667;28;20033;-65
2023/01/15 02:37:58;;;;;;;7.43;0.40;;;8.40;99.90;;;;;;5077007;28;20577;-64
2023/01/15 02:40:26;;;;;;;0.77;0.77;;;8.40;99.90;;;;;;5075627;28;20032;-63
2023/01/15 02:42:53;;;;;;;3.20;0.20;;;8.40;99.90;;;;;;5076908;28;20040;-64
2023/01/15 02:45:25;;;;;;;1.73;0.13;;;8.40;99.90;;;;;;5077096;28;20559;-65
2023/01/15 02:47:53;;;;;;;1.02;0.20;;;8.40;99.90;;;;;;5076678;28;20024;-65
2023/01/15 02:50:23;;;;;;;2.75;0.32;;;8.40;99.90;;;;;;5076861;28;20108;-64
2023/01/15 02:52:54;;;;;;;0.20;0.20;;;8.30;99.90;;;;;;5080229;28;20029;-64
2023/01/15 02:55:25;;;;;;;2.75;0.20;;;8.30;99.90;;;;;;5095794;28;20426;-65
2023/01/15 02:57:55;;;;;;;0.22;0.10;;;8.40;99.90;;;;;;5095183;28;20032;-65
2023/01/15 03:00:23;;;;;;;0.30;0.20;;;8.30;99.90;;;;;;5095520;28;20020;-65
2023/01/15 03:02:57;;;;;;;2.47;0.20;;;8.40;99.90;;;;;;5089203;28;20032;-64
2023/01/15 03:05:30;;;;;;;0.50;0.10;;;8.40;99.90;;;;;;5074350;28;20078;-62
2023/01/15 03:08:01;;;;;;;0.55;0.30;;;8.40;99.90;;;;;;5075060;28;20029;-64
2023/01/15 03:10:31;;;;;;;4.55;0.20;;;8.30;99.90;;;;;;5074272;28;20025;-64
2023/01/15 03:13:01;;;;;;;0.70;0.50;;;8.30;99.90;;;;;;5074070;28;20028;-64
2023/01/15 03:18:26;;;;;;;0.80;0.25;;;8.30;99.90;;;;;;5074681;28;20024;-64
2023/01/15 03:20:58;;;;;;;1.67;1.58;;;8.30;99.90;;;;;;5076193;28;20044;-65
2023/01/15 03:23:26;;;;;;;0.20;0.15;;;8.30;99.90;;;;;;5073284;28;20078;-64
2023/01/15 03:25:52;;;;;;;0.90;0.30;;;8.30;99.90;;;;;;5074533;28;20105;-62
2023/01/15 03:28:24;;;;;;;0.95;0.20;;;8.30;99.90;;;;;;5074290;28;20501;-65
2023/01/15 03:30:50;;;;;;;1.08;0.30;;;8.30;99.90;;;;;;5074322;28;20032;-62
2023/01/15 03:33:16;;;;;;;0.30;0.20;;;8.30;99.90;;;;;;5074330;28;20036;-60
2023/01/15 03:35:51;;;;;;;3.88;0.50;;;8.20;99.90;;;;;;5075567;28;20040;-63
2023/01/15 03:38:22;;;;;;;0.52;0.20;;;8.30;99.90;;;;;;5075072;28;20024;-62
2023/01/15 03:41:17;;;;;;;0.50;0.22;;;8.40;99.90;;;;;;5074559;28;20016;-64
2023/01/15 03:43:54;;;;;;;0.52;0.20;;;8.30;99.90;;;;;;5074554;28;20170;-62
2023/01/15 03:46:28;;;;;;;0.73;0.40;;;8.30;99.90;;;;;;5075141;28;20031;-61
2023/01/15 03:49:31;;;;;;;0.95;0.30;;;8.30;99.90;;;;;;5074604;28;20170;-63
2023/01/15 03:52:20;;;;;;;1.08;0.22;;;8.30;99.90;;;;;;5075258;28;20023;-63
2023/01/15 03:54:53;;;;;;;0.80;0.43;;;8.30;99.90;;;;;;5074394;28;20039;-62
2023/01/15 03:57:36;;;;;;;0.65;0.32;;;8.30;99.90;;;;;;5075711;28;20067;-65
2023/01/15 04:00:17;;;;;;;1.13;0.40;;;8.30;99.90;;;;;;5075121;28;20028;-63
2023/01/15 04:02:45;;;;;;;0.40;0.40;;;8.30;99.90;;;;;;5077237;28;20040;-62
2023/01/15 04:05:12;;;;;;;2.33;0.35;;;8.30;99.90;;;;;;5078375;28;20060;-62
2023/01/15 04:07:38;;;;;;;1.52;0.60;;;8.30;99.90;;;;;;5080148;28;20025;-62
2023/01/15 04:10:10;;;;;;;26.42;1.42;;;8.30;99.90;;;;;;5076304;28;20498;-64
2023/01/15 04:12:35;;;;;;;4.53;0.20;;;8.30;99.90;;;;;;5074182;28;20021;-63
2023/01/15 04:15:01;;;;;;;1.42;0.43;;;8.10;99.90;;;;;;5075356;28;20035;-64
2023/01/15 04:17:27;;;;;;;0.60;0.10;;;7.60;99.90;;;;;;5074792;28;20050;-63
2023/01/15 04:19:52;;;;;;;4.72;0.43;;;7.30;99.90;;;;;;5073863;28;20021;-64
2023/01/15 04:22:18;;;;;;;3.30;0.30;;;7.10;99.90;;;;;;5073985;28;20145;-63
2023/01/15 04:24:44;;;;;;;1.90;0.40;;;6.90;99.90;;;;;;5073610;28;20025;-65
2023/01/15 04:27:10;;;;;;;1.35;0.40;;;6.80;99.90;;;;;;5073970;28;20048;-61
2023/01/15 04:29:36;;;;;;;1.95;0.60;;;6.80;99.90;;;;;;5073364;28;20044;-63
2023/01/15 04:32:01;;;;;;;0.77;0.25;;;6.80;99.90;;;;;;5074348;28;20025;-61
2023/01/15 04:34:28;;;;;;;4.40;0.25;;;6.70;99.90;;;;;;5074197;28;20024;-62
2023/01/15 04:36:54;;;;;;;1.25;0.40;;;6.70;99.90;;;;;;5079504;28;20028;-61
2023/01/15 04:39:20;;;;;;;1.48;0.65;;;6.60;99.90;;;;;;5079402;28;20035;-65
2023/01/15 04:44:33;;;;;;;0.63;0.10;;;6.30;99.90;;;;;;5077748;28;20550;-61
2023/01/15 04:46:59;;;;;;;3.55;0.30;;;6.00;99.90;;;;;;5078098;28;20467;-64
2023/01/15 04:49:25;;;;;;;1.85;0.20;;;5.90;99.90;;;;;;5079383;28;20025;-64
2023/01/15 04:51:51;;;;;;;0.80;0.25;;;5.80;99.90;;;;;;5080360;28;20107;-64
2023/01/15 04:54:17;;;;;;;6.53;0.57;;;6.20;99.90;;;;;;5094731;28;20059;-64
2023/01/15 04:56:46;;;;;;;1.60;0.20;;;5.70;99.90;;;;;;5099661;28;20032;-64
2023/01/15 04:59:13;;;;;;;1.85;0.20;;;5.70;99.90;;;;;;5099792;28;20055;-61
2023/01/15 05:01:39;;;;;;;1.65;0.35;;;5.60;99.90;;;;;;5099592;28;20044;-61
2023/01/15 05:04:06;;;;;;;2.92;0.22;;;5.50;99.90;;;;;;5099497;28;20028;-64
2023/01/15 05:06:32;;;;;;;0.93;0.10;;;5.50;99.90;;;;;;5099376;28;20028;-63
2023/01/15 05:09:02;;;;;;;1.13;0.30;;;5.40;99.90;;;;;;5083444;28;20608;-62
2023/01/15 05:11:28;;;;;;;1.15;0.20;;;5.40;99.90;;;;;;5078784;28;20040;-62
2023/01/15 05:13:54;;;;;;;1.15;0.30;;;5.40;99.90;;;;;;5077086;28;20032;-63
2023/01/15 05:16:26;;;;;;;2.33;0.30;;;5.30;99.90;;;;;;5078724;28;20028;-62
2023/01/15 05:18:55;;;;;;;3.22;0.28;;;5.30;99.90;;;;;;5078813;28;20482;-63
2023/01/15 05:21:26;;;;;;;2.92;0.40;;;5.30;99.90;;;;;;5078606;28;20094;-63
2023/01/15 05:23:54;;;;;;;1.85;0.43;;;5.40;99.90;;;;;;5077385;28;20024;-64
2023/01/15 05:26:21;;;;;;;1.10;0.15;;;5.40;99.90;;;;;;5076699;28;20055;-65
2023/01/15 05:28:47;;;;;;;0.63;0.30;;;5.30;99.90;;;;;;5079196;28;20052;-65
2023/01/15 05:31:17;;;;;;;7.57;0.43;;;5.30;99.90;;;;;;5079168;28;20423;-63
2023/01/15 05:33:45;;;;;;;6.70;0.20;;;5.20;99.90;;;;;;5078079;28;20054;-66
2023/01/15 05:36:13;;;;;;;0.57;0.10;;;5.20;99.90;;;;;;5078248;28;20036;-65
2023/01/15 05:38:39;;;;;;;1.73;0.30;;;5.30;99.90;;;;;;5078740;28;20112;-67
2023/01/15 05:41:47;;;;;;;2.00;0.13;;;5.10;99.90;;;;;;5087320;28;20028;-65
2023/01/15 05:43:53;;;;;;;2.13;0.30;;;5.10;99.90;;;;;;5097291;28;20548;-63
2023/01/15 05:46:20;;;;;;;1.38;0.25;;;5.10;99.90;;;;;;5099048;28;20044;-64
2023/01/15 05:48:45;;;;;;;3.30;0.40;;;5.20;99.90;;;;;;5098463;28;20043;-65
2023/01/15 05:51:11;;;;;;;2.53;0.15;;;5.60;99.90;;;;;;5098971;28;20016;-65
2023/01/15 05:53:37;;;;;;;1.67;0.30;;;5.20;99.90;;;;;;5087071;28;20059;-64
2023/01/15 05:56:03;;;;;;;0.95;0.20;;;5.20;99.90;;;;;;5077567;28;20033;-65
2023/01/15 05:58:29;;;;;;;2.58;0.28;;;5.20;99.90;;;;;;5097018;28;20473;-65
2023/01/15 06:00:55;;;;;;;0.75;0.30;;;5.10;99.90;;;;;;5098181;28;20477;-64
2023/01/15 06:03:22;;;;;;;1.63;0.20;;;5.10;99.90;;;;;;5092837;28;20154;-65
2023/01/15 06:05:52;;;;;;;2.55;0.20;;;6.00;99.90;;;;;;5078407;28;20226;-64
2023/01/15 06:08:18;;;;;;;1.02;0.20;;;5.20;99.90;;;;;;5077707;28;20246;-64
2023/01/15 06:10:45;;;;;;;1.23;0.20;;;5.20;99.90;;;;;;5077802;28;20032;-65
2023/01/15 06:13:11;;;;;;;3.30;0.30;;;5.10;99.90;;;;;;5079450;28;20027;-64
2023/01/15 06:15:37;;;;;;;2.70;0.40;;;5.60;99.90;;;;;;5078704;28;20025;-64
2023/01/15 06:18:03;;;;;;;0.40;0.20;;;5.10;99.90;;;;;;5078581;28;20111;-64
2023/01/15 06:20:28;;;;;;;3.38;0.30;;;5.10;99.90;;;;;;5077213;28;20025;-65
2023/01/15 06:22:54;;;;;;;1.58;0.30;;;5.20;99.90;;;;;;5077927;28;20100;-63
2023/01/15 06:25:20;;;;;;;1.23;0.28;;;5.20;99.90;;;;;;5079070;28;20027;-64
2023/01/15 06:27:48;;;;;;;0.32;0.20;;;5.20;99.90;;;;;;5098018;28;20498;-63
2023/01/15 06:30:14;;;;;;;5.03;0.50;;;5.20;99.90;;;;;;5090682;28;20024;-64
2023/01/15 06:32:40;;;;;;;3.63;0.40;;;5.20;99.90;;;;;;5077202;28;20017;-64
2023/01/15 06:35:06;;;;;;;1.05;0.20;;;5.30;99.90;;;;;;5077562;28;20060;-64
2023/01/15 06:37:32;;;;;;;0.70;0.30;;;5.20;99.90;;;;;;5076787;28;20040;-64
2023/01/15 06:39:57;;;;;;;1.08;0.30;;;5.20;99.90;;;;;;5077736;28;20021;-64
2023/01/15 06:47:56;;;;;;;4.72;0.35;;;5.30;99.90;;;;;;5079018;28;20040;-63
2023/01/15 06:50:22;;;;;;;6.90;0.40;;;5.30;99.90;;;;;;5076629;28;20058;-63
2023/01/15 06:52:47;;;;;;;4.90;0.47;;;5.30;99.90;;;;;;5085333;28;20025;-64
2023/01/15 06:55:13;;;;;;;2.50;0.38;;;5.40;99.90;;;;;;5076525;28;20032;-64
2023/01/15 06:57:39;;;;;;;4.22;0.30;;;5.50;99.90;;;;;;5083159;28;20032;-64
2023/01/15 07:00:07;;;;;;;1.95;0.35;;;5.60;99.90;;;;;;5085073;28;20078;-64
2023/01/15 07:02:33;;;;;;;1.38;0.40;;;5.40;99.90;;;;;;5087997;28;20040;-64
2023/01/15 07:04:58;;;;;;;2.33;0.20;;;5.40;99.90;;;;;;5096468;28;20442;-64
2023/01/15 07:07:24;;;;;;;1.27;0.30;;;5.40;99.90;;;;;;5078660;28;20032;-64
2023/01/15 07:09:50;;;;;;;1.70;0.40;;;5.30;99.90;;;;;;5075484;28;20490;-64
2023/01/15 07:12:16;;;;;;;2.75;1.23;;;5.40;99.90;;;;;;5076065;28;20028;-64
2023/01/15 07:14:42;;;;;;;4.43;0.40;;;5.30;99.90;;;;;;5075587;28;20024;-64
2023/01/15 07:17:08;;;;;;;1.10;0.32;;;5.30;99.90;;;;;;5074927;28;20035;-64
2023/01/15 07:19:33;;;;;;;1.95;0.20;;;5.30;99.90;;;;;;5093881;28;20054;-65
2023/01/15 07:21:59;;;;;;;1.77;0.40;;;5.30;99.90;;;;;;5096455;28;20040;-65
2023/01/15 07:24:25;;;;;;;3.47;0.85;;;5.50;99.90;;;;;;5095414;28;20145;-64
2023/01/15 07:26:50;;;;;;;0.98;0.30;;;5.40;99.90;;;;;;5096278;28;20355;-64
2023/01/15 07:29:16;;;;;;;1.10;0.22;;;5.90;99.90;;;;;;5076457;28;20024;-64
2023/01/15 07:31:42;;;;;;;0.73;0.47;;;5.40;99.90;;;;;;5075865;28;20012;-64
2023/01/15 07:34:08;;;;;;;1.27;0.38;;;5.30;99.90;;;;;;5076227;28;20031;-64
2023/01/15 07:36:34;;;;;;;0.93;0.30;;;5.40;99.90;;;;;;5075893;28;20040;-64
2023/01/15 07:38:59;;;;;;;2.60;0.45;;;5.60;99.90;;;;;;5075369;28;20163;-63
2023/01/15 07:49:44;;;;;;;1.08;0.30;;;5.40;99.90;;;;;;5075581;28;20032;-62
2023/01/15 07:52:14;;;;;;;5.38;0.75;;;5.40;99.90;;;;;;5074721;28;20556;-62
2023/01/15 07:54:40;;;;;;;1.67;0.30;;;5.30;99.90;;;;;;5080643;28;20050;-64
2023/01/15 07:57:06;;;;;;;2.25;0.47;;;5.70;99.90;;;;;;5095643;28;20024;-64
2023/01/15 07:59:32;;;;;;;1.40;0.68;;;5.30;99.90;;;;;;5093533;28;20028;-63
2023/01/15 08:01:57;;;;;;;3.33;1.08;;;5.30;99.90;;;;;;5074744;28;20509;-62
2023/01/15 08:04:23;;;;;;;0.95;0.40;;;5.30;99.90;;;;;;5074542;28;20100;-64
2023/01/15 08:06:49;;;;;;;2.42;0.40;;;5.30;99.90;;;;;;5075095;28;20020;-64
2023/01/15 08:17:10;;;;;;;2.03;0.40;;;5.30;99.90;;;;;;5051676;28;20048;-62
2023/01/15 08:19:36;;;;;;;1.30;0.32;;;5.30;99.90;;;;;;5051350;28;20029;-64
2023/01/15 08:22:02;;;;;;;1.83;0.57;;;5.40;99.90;;;;;;5051558;28;20121;-62
2023/01/15 08:24:28;;;;;;;2.53;0.50;;;5.40;99.90;;;;;;5050963;28;20037;-64
2023/01/15 08:26:54;;;;;;;3.83;0.30;;;5.40;99.90;;;;;;5051400;28;20479;-64
2023/01/15 08:29:20;;;;;;;1.60;0.40;;;5.40;99.90;;;;;;5051731;28;20035;-65
2023/01/15 08:31:46;;;;;;;1.25;0.30;;;5.40;99.90;;;;;;5051327;28;20032;-65
2023/01/15 08:34:12;;;;;;;1.17;0.40;;;5.50;99.90;;;;;;5049411;28;20507;-65
2023/01/15 08:36:38;;;;;;;6.07;0.60;;;5.50;99.90;;;;;;5050868;28;20049;-65
2023/01/15 08:39:04;;;;;;;2.13;0.60;;;5.50;99.90;;;;;;5050969;28;20405;-64
2023/01/15 08:41:30;;;;;;;2.72;0.50;;;5.50;99.90;;;;;;5050805;28;20021;-63
2023/01/15 08:43:56;;;;;;;2.50;0.73;;;5.60;99.90;;;;;;5050507;28;20052;-65
2023/01/15 08:46:22;;;;;;;3.00;0.50;;;5.50;99.90;;;;;;5050750;28;20021;-65
2023/01/15 08:48:48;;;;;;;1.52;0.50;;;5.50;99.90;;;;;;5049738;28;20029;-65
2023/01/15 08:51:14;;;;;;;3.33;1.00;;;5.60;99.90;;;;;;4701459;28;10001173;-65
2023/01/15 08:53:39;;;;;;;1.70;0.50;;;5.60;99.90;;;;;;4698453;28;10000154;-64
2023/01/15 08:56:18;;;;;;;1.23;0.57;;;5.70;99.90;;;;;;5031770;28;20045;-67
2023/01/15 08:58:44;;;;;;;2.40;0.90;;;5.70;99.90;;;;;;5027874;28;20040;-65
2023/01/15 09:01:14;;;;;;;1.52;0.60;;;5.70;99.90;;;;;;5027766;28;20029;-66
2023/01/15 09:03:41;;;;;;;2.97;0.40;;;5.70;99.90;;;;;;5027436;28;20033;-65
2023/01/15 09:06:07;;;;;;;1.02;0.50;;;5.70;99.90;;;;;;5032164;28;20025;-65
2023/01/15 09:08:33;;;;;;;2.17;1.48;;;6.00;99.90;;;;;;5046024;28;20470;-65
2023/01/15 09:11:01;;;;;;;0.40;0.20;;;5.70;99.90;;;;;;5047595;28;20131;-63
2023/01/15 09:13:28;;;;;;;4.55;0.43;;;5.70;99.90;;;;;;5047095;28;20025;-65
2023/01/15 09:15:58;;;;;;;2.00;0.32;;;5.80;99.90;;;;;;5046425;28;20326;-65
2023/01/15 09:18:24;;;;;;;3.60;0.30;;;5.80;99.90;;;;;;5041323;28;20037;-66
2023/01/15 09:20:49;;;;;;;4.40;0.35;;;5.80;99.90;;;;;;5036775;28;20025;-65
2023/01/15 09:23:15;;;;;;;2.33;0.40;;;5.80;99.90;;;;;;5040369;28;20083;-66
2023/01/15 09:25:59;;;;;;;1.15;0.20;;;5.90;99.90;;;;;;5044196;28;20037;-64
2023/01/15 09:28:26;;;;;;;1.23;0.30;;;5.90;99.90;;;;;;5051354;28;20032;-65
2023/01/15 09:30:51;;;;;;;0.98;0.50;;;6.00;99.90;;;;;;5046752;28;20453;-65
2023/01/15 09:33:17;;;;;;;3.42;0.95;;;6.00;99.90;;;;;;5039383;28;20053;-65
2023/01/15 09:35:43;;;;;;;0.90;0.40;;;6.00;99.90;;;;;;5041155;28;20426;-65
2023/01/15 09:38:15;;;;;;;1.83;0.32;;;6.00;99.90;;;;;;5039820;28;20048;-65
2023/01/15 09:41:02;;;;;;;6.72;0.50;;;5.90;99.90;;;;;;5039794;28;20029;-67
2023/01/15 09:43:50;;;;;;;0.63;0.30;;;5.90;99.90;;;;;;5040779;28;20415;-65
2023/01/15 09:46:28;;;;;;;1.15;0.30;;;6.00;99.90;;;;;;5041608;28;20090;-64
2023/01/15 09:49:08;;;;;;;1.67;0.30;;;4.30;99.90;;;;;;5038866;28;20554;-64
2023/01/15 09:51:49;;;;;;;0.30;0.30;;;5.90;99.90;;;;;;5032055;28;20125;-61
2023/01/15 09:54:44;;;;;;;1.10;0.60;;;6.00;99.90;;;;;;5035839;28;20146;-64
2023/01/15 09:57:12;;;;;;;1.00;0.50;;;6.10;99.90;;;;;;5054312;28;20033;-65
2023/01/15 09:59:42;;;;;;;0.73;0.40;;;6.10;99.90;;;;;;5050056;28;20467;-63
2023/01/15 10:02:25;;;;;;;0.70;0.30;;;6.10;99.90;;;;;;5045976;28;20343;-61
2023/01/15 10:05:01;;;;;;;0.85;0.40;;;6.20;99.90;;;;;;5050103;28;20040;-65
2023/01/15 10:07:57;;;;;;;0.77;0.30;;;6.20;99.90;;;;;;5049699;28;20057;-65
2023/01/15 10:10:28;;;;;;;1.25;0.40;;;6.30;99.90;;;;;;5048560;28;20750;-65
2023/01/15 10:13:02;;;;;;;3.22;0.40;;;6.40;99.90;;;;;;5048523;28;20021;-62
2023/01/15 10:15:46;;;;;;;1.00;0.40;;;6.20;99.90;;;;;;5048387;28;20116;-62
2023/01/15 10:18:21;;;;;;;7.05;0.50;;;6.40;99.90;;;;;;5048215;28;20340;-65
2023/01/15 10:20:56;;;;;;;2.67;0.55;;;6.30;99.90;;;;;;5034745;28;20029;-63
2023/01/15 10:23:39;;;;;;;2.05;0.30;;;6.30;99.90;;;;;;5038116;28;20025;-64
2023/01/15 10:26:34;;;;;;;0.32;0.30;;;6.30;99.90;;;;;;5033333;28;20063;-63
2023/01/15 10:29:00;;;;;;;2.22;0.52;;;6.40;99.90;;;;;;5042870;28;20564;-63
2023/01/15 10:31:52;;;;;;;1.33;0.60;;;6.50;99.90;;;;;;5047853;28;20021;-62
2023/01/15 10:34:38;;;;;;;4.88;3.13;;;6.60;99.90;;;;;;5032481;28;20041;-59
2023/01/15 10:37:28;;;;;;;0.98;0.40;;;6.60;99.90;;;;;;5046127;28;20029;-60
2023/01/15 10:40:13;;;;;;;1.40;0.52;;;6.70;99.90;;;;;;5046033;28;20456;-61
2023/01/15 10:43:12;;;;;;;0.75;0.40;;;6.70;99.90;;;;;;5031872;28;20380;-61
2023/01/15 10:45:46;;;;;;;2.45;0.60;;;6.80;99.90;;;;;;5032526;28;20195;-64
2023/01/15 10:49:01;;;;;;;2.10;0.60;;;6.70;99.90;;;;;;5040363;28;20384;-65
2023/01/15 10:51:33;;;;;;;3.42;0.70;;;6.80;99.90;;;;;;5010419;28;20032;-64
2023/01/15 10:54:11;;;;;;;1.98;0.63;;;6.70;99.90;;;;;;5039439;28;20118;-63
2023/01/15 10:56:45;;;;;;;0.98;0.65;;;6.70;99.90;;;;;;5033570;28;20026;-60
2023/01/15 10:59:38;;;;;;;4.80;0.60;;;6.70;99.90;;;;;;5047907;28;20112;-64
2023/01/15 11:02:19;;;;;;;2.42;0.90;;;6.80;99.90;;;;;;5044729;28;20048;-64
2023/01/15 11:04:45;;;;;;;2.92;0.70;;;7.00;99.90;;;;;;5046630;28;20079;-64
2023/01/15 11:07:12;;;;;;;2.08;0.75;;;7.00;99.90;;;;;;5052957;28;20025;-65
2023/01/15 11:09:40;;;;;;;1.20;0.52;;;7.00;99.90;;;;;;5063691;28;20029;-64
2023/01/15 11:20:31;;;;;;;4.47;0.60;;;7.00;99.90;;;;;;5039981;28;20032;-65
2023/01/15 11:23:07;;;;;;;4.55;0.50;;;6.90;99.90;;;;;;5040893;28;20028;-61
2023/01/15 11:25:33;;;;;;;0.90;0.50;;;6.90;99.90;;;;;;5035702;28;20614;-63
2023/01/15 11:28:04;;;;;;;1.58;0.55;;;6.90;99.90;;;;;;5036271;28;20119;-63
2023/01/15 11:30:36;;;;;;;2.67;0.70;;;6.90;99.90;;;;;;5052073;28;20108;-66
2023/01/15 11:33:03;;;;;;;0.85;0.50;;;6.90;99.90;;;;;;5052066;28;20025;-64
2023/01/15 11:35:29;;;;;;;1.40;0.60;;;6.90;99.90;;;;;;5052043;28;20040;-62
2023/01/15 11:38:13;;;;;;;1.60;0.30;;;6.90;99.90;;;;;;5035580;28;20029;-63
2023/01/15 11:40:38;;;;;;;1.33;0.50;;;6.90;99.90;;;;;;5051692;28;20399;-61
2023/01/15 11:51:42;;;;;;;2.85;0.93;;;6.80;99.90;;;;;;4336867;28;10000711;-62
2023/01/15 11:54:12;;;;;;;3.08;1.33;;;6.80;99.90;;;;;;5028651;28;20037;-63
2023/01/15 11:56:41;;;;;;;4.03;1.02;;;6.70;99.90;;;;;;5028010;28;20045;-63
2023/01/15 11:59:13;;;;;;;1.40;0.60;;;6.70;99.90;;;;;;5037862;28;20040;-64
2023/01/15 12:01:49;;;;;;;2.67;1.13;;;6.80;99.90;;;;;;5030947;28;20344;-64
2023/01/15 12:04:55;;;;;;;5.25;0.60;;;6.70;99.90;;;;;;5033507;28;20098;-63
2023/01/15 12:07:24;;;;;;;1.10;0.50;;;6.60;99.90;;;;;;5025483;28;20069;-63
2023/01/15 12:10:05;;;;;;;1.27;0.60;;;6.70;99.90;;;;;;5047476;28;20406;-62
2023/01/15 12:12:51;;;;;;;2.60;1.00;;;6.70;99.90;;;;;;5032662;28;20128;-62
2023/01/15 12:15:32;;;;;;;6.00;1.48;;;6.70;99.90;;;;;;5048296;28;20025;-62
2023/01/15 12:18:26;;;;;;;5.22;1.67;;;6.80;99.90;;;;;;5047208;28;20610;-64
2023/01/15 12:21:00;;;;;;;0.73;0.40;;;6.80;99.90;;;;;;5035938;28;20067;-63
2023/01/15 12:23:38;;;;;;;2.95;1.10;;;6.90;99.90;;;;;;5027347;28;20029;-63
2023/01/15 12:26:03;;;;;;;1.83;0.68;;;6.80;99.90;;;;;;5031257;28;20029;-63
2023/01/15 12:28:39;;;;;;;5.05;2.25;;;6.90;99.90;;;;;;5045867;28;20364;-64
2023/01/15 12:31:15;;;;;;;2.15;0.70;;;6.90;99.90;;;;;;5047913;28;20032;-63
2023/01/15 12:34:04;;;;;;;1.73;0.40;;;6.80;99.90;;;;;;5047679;28;20381;-63
2023/01/15 12:36:42;;;;;;;6.03;1.35;;;6.90;99.90;;;;;;5041590;28;20025;-59
2023/01/15 12:39:11;;;;;;;3.05;1.27;;;6.90;99.90;;;;;;5047761;28;20521;-60
2023/01/15 12:45:00;;;;;;;10.40;0.80;;;7.00;99.90;;;;;;5031426;28;20111;-63
2023/01/15 12:47:58;;;;;;;2.30;0.90;;;7.00;99.90;;;;;;5042687;28;20459;-61
2023/01/15 12:50:47;;;;;;;2.63;0.70;;;6.70;99.90;;;;;;5027661;28;20036;-63
2023/01/15 12:53:44;;;;;;;3.85;2.05;;;7.10;99.90;;;;;;5028103;28;20041;-62
2023/01/15 12:56:49;;;;;;;4.18;1.00;;;7.00;99.90;;;;;;5029265;28;20144;-62
2023/01/15 12:59:29;;;;;;;5.72;0.35;;;7.00;99.90;;;;;;5041617;28;20443;-65
2023/01/15 13:02:19;;;;;;;1.58;0.50;;;6.90;99.90;;;;;;5038562;28;20105;-60
2023/01/15 13:05:09;;;;;;;2.85;0.45;;;6.80;99.90;;;;;;5030435;28;20094;-62
2023/01/15 13:08:08;;;;;;;3.83;0.63;;;6.80;99.90;;;;;;5031079;28;20029;-63
2023/01/15 13:10:35;;;;;;;2.17;0.90;;;6.80;99.90;;;;;;5029553;28;20122;-62
2023/01/15 13:13:15;;;;;;;1.30;0.47;;;7.00;99.90;;;;;;5040673;28;20029;-60
2023/01/15 13:15:52;;;;;;;2.92;0.90;;;7.00;99.90;;;;;;5024991;28;20033;-63
2023/01/15 13:18:39;;;;;;;2.20;0.80;;;7.10;99.90;;;;;;5024077;28;20568;-58
2023/01/15 13:21:12;;;;;;;3.08;0.40;;;7.00;99.90;;;;;;5034992;28;20547;-57
2023/01/15 13:23:46;;;;;;;2.75;0.57;;;7.10;99.90;;;;;;5033170;28;20025;-62
2023/01/15 13:26:37;;;;;;;1.10;0.60;;;7.10;99.90;;;;;;5026692;28;20453;-61
2023/01/15 13:29:15;;;;;;;3.72;0.70;;;7.20;99.90;;;;;;5024543;28;20325;-62
2023/01/15 13:31:56;;;;;;;2.50;0.98;;;7.10;99.90;;;;;;5024566;28;20029;-63
2023/01/15 13:34:30;;;;;;;2.25;0.70;;;6.90;99.90;;;;;;5023714;28;20025;-57
2023/01/15 13:37:03;;;;;;;9.38;0.95;;;6.80;99.90;;;;;;5025800;28;20028;-59
2023/01/15 13:39:38;;;;;;;3.08;0.80;;;6.80;99.90;;;;;;5030504;28;20040;-60
2023/01/15 13:44:51;;;;;;;1.70;0.60;;;6.90;99.90;;;;;;5033407;28;20074;-61
2023/01/15 13:47:22;;;;;;;2.40;0.70;;;6.80;99.90;;;;;;5025156;28;20053;-64
2023/01/15 13:49:52;;;;;;;1.98;0.65;;;6.70;99.90;;;;;;5024600;28;20100;-57
2023/01/15 13:52:36;;;;;;;0.75;0.40;;;6.60;99.90;;;;;;5023367;28;20025;-61
2023/01/15 13:55:11;;;;;;;2.97;0.77;;;6.50;99.90;;;;;;5024553;28;20029;-62
2023/01/15 13:57:39;;;;;;;6.32;0.80;;;6.50;99.90;;;;;;5034388;28;20028;-63
2023/01/15 14:00:27;;;;;;;2.55;0.52;;;6.50;99.90;;;;;;5045987;28;20061;-63
2023/01/15 14:03:13;;;;;;;1.95;0.40;;;6.70;99.90;;;;;;5045783;28;20094;-58
2023/01/15 14:05:39;;;;;;;3.78;0.68;;;7.00;99.90;;;;;;4698901;28;10001208;-59
2023/01/15 14:08:15;;;;;;;5.10;0.50;;;7.30;99.90;;;;;;5040598;28;20041;-62
2023/01/15 14:10:41;;;;;;;0.90;0.40;;;7.70;99.90;;;;;;5069615;22;20048;-66
2023/01/15 14:13:18;;;;;;;1.27;0.50;;;7.30;99.90;;;;;;5066188;28;20048;-64
2023/01/15 14:16:02;;;;;;;5.45;0.75;;;7.40;99.90;;;;;;5066484;28;20074;-66
2023/01/15 14:18:34;;;;;;;2.33;0.60;;;7.60;99.90;;;;;;5066495;28;20027;-66